Alto Palena, Chile

4:06 PM CLST on August 30, 2016 (GMT -0300)
Alto Palena Airport | | Change Station

Elev 909 ft 43.62 °S, 71.78 °W | Updated 1 hour ago

Mostly Cloudy
Mostly Cloudy
45 °F
Feels Like 39 °F
N
12
Wind Variable Wind from WSW
Gusts 25 mph

Today
High -- | Low -- °F
--% Chance of Precip.
Yesterday
High -- | Low -- °F
Precip. -- in
Pressure 30.04 in
Visibility 6.2 miles
Clouds Mostly Cloudy 3000 ft
Windchill 39 °F
Dew Point 34 °F
Humidity 66%
Rainfall 0.00 in
Snow Depth Not available.
8:16 AM 7:19 PM
Waning Crescent, 3% visible
METAR SCAP 301800Z 25010G22KT 210V280 9999 VCSH BKN030 07/01 Q1017
Pressure 30.04 in
Visibility 6.2 miles
Clouds Mostly Cloudy 3000 ft
Windchill 39 °F
Dew Point 34 °F
Humidity 66%
Rainfall 0.00 in
Snow Depth Not available.
8:16 AM 7:19 PM
Waning Crescent, 3% visible
METAR SCAP 301800Z 25010G22KT 210V280 9999 VCSH BKN030 07/01 Q1017

10-Day Weather Forecast

No radar image for this location.
×

Almanac

Astronomy

Aug. 30, 2016 Rise Set
Actual Time
Civil Twilight
Nautical Twilight
Astronomical Twilight
Moon
Length of Visible Light
Length of Day
Tomorrow will be .
, % of the Moon is Illuminated

Today's Extremes

Country Highs Country Lows

Community

WunderPhotos

Upload Photos

1,935,879 photos uploaded!

WunderBlog® & News

Nearby

Air Quality

  Air Quality AQ Index Pollutant
Not available.

Snow Depth

Station Depth Elevation

Earthquake Activity

City Distance Mag. Time & Date
Minimum magnitude displayed is 2.5.

Coastal Water Temperatures

Place Temperature

Stations

Nearby Weather Stations

Station Location Temp. Windchill Dew Point Humidity Wind Precip. Elev Updated Type